createdAt,value
2024-03-02T00:01:57.835Z,99417.06
2024-03-02T00:06:59.980Z,99432.81
2024-03-02T00:12:01.656Z,99426.84
2024-03-02T00:17:03.623Z,99431.53
2024-03-02T00:22:05.300Z,99427.09
2024-03-02T00:27:08.587Z,99415.22
2024-03-02T00:32:17.225Z,99422.31
2024-03-02T00:37:19.388Z,99424.50
2024-03-02T00:42:20.873Z,99421.25
2024-03-02T00:47:22.343Z,99425.41
2024-03-02T00:52:25.400Z,99431.97
2024-03-02T00:57:27.756Z,99428.69
2024-03-02T01:02:30.230Z,99426.44
2024-03-02T01:07:31.689Z,99426.50
2024-03-02T01:12:33.121Z,99441.06
2024-03-02T01:17:34.776Z,99438.03
2024-03-02T01:22:36.779Z,99446.28
2024-03-02T01:27:38.254Z,99445.72
2024-03-02T01:32:39.876Z,99447.56
2024-03-02T01:37:41.991Z,99448.38
2024-03-02T01:42:44.283Z,99450.47
2024-03-02T01:47:45.815Z,99448.97
2024-03-02T01:52:47.300Z,99458.44
2024-03-02T01:57:51.785Z,99467.06
2024-03-02T02:02:54.381Z,99457.84
2024-03-02T02:07:56.289Z,99462.38
2024-03-02T02:12:57.888Z,99473.03
2024-03-02T02:18:00.391Z,99469.66
2024-03-02T02:23:03.856Z,99463.97
2024-03-02T02:28:05.550Z,99461.81
2024-03-02T02:33:07.090Z,99458.66
2024-03-02T02:38:08.568Z,99467.66
2024-03-02T02:43:10.010Z,99477.34
2024-03-02T02:48:11.469Z,99477.22
2024-03-02T02:53:13.015Z,99477.19
2024-03-02T02:58:15.612Z,99456.75
2024-03-02T03:03:17.106Z,99455.75
2024-03-02T03:08:18.524Z,99479.28
2024-03-02T03:13:19.944Z,99477.91
2024-03-02T03:18:21.635Z,99482.13
2024-03-02T03:23:23.157Z,99472.47
2024-03-02T03:28:24.612Z,99481.63
2024-03-02T03:33:26.110Z,99470.06
2024-03-02T03:38:27.704Z,99456.72
2024-03-02T03:43:29.112Z,99465.50
2024-03-02T03:48:31.955Z,99456.72
2024-03-02T03:53:33.506Z,99458.41
2024-03-02T03:58:35.010Z,99461.66
2024-03-02T04:03:36.461Z,99467.91
2024-03-02T04:08:38.034Z,99466.22
2024-03-02T04:13:39.442Z,99470.56
2024-03-02T04:18:41.073Z,99469.84
2024-03-02T04:23:42.515Z,99469.41
2024-03-02T04:28:43.917Z,99477.34
2024-03-02T04:33:45.359Z,99472.81
2024-03-02T04:38:47.147Z,99473.75
2024-03-02T04:43:48.588Z,99472.56
2024-03-02T04:48:56.840Z,99483.34
2024-03-02T04:53:58.379Z,99491.59
2024-03-02T04:58:59.791Z,99490.47
2024-03-02T05:04:01.289Z,99496.88
2024-03-02T05:09:02.722Z,99501.06
2024-03-02T05:14:07.892Z,99496.16
2024-03-02T05:19:09.488Z,99501.16
2024-03-02T05:24:10.920Z,99475.34
2024-03-02T05:29:12.341Z,99495.81
2024-03-02T05:34:13.837Z,99503.56
2024-03-02T05:39:15.318Z,99506.31
2024-03-02T05:44:16.715Z,99518.66
2024-03-02T05:49:18.127Z,99513.09
2024-03-02T05:54:19.635Z,99502.34
2024-03-02T05:59:21.168Z,99523.50
2024-03-02T06:04:22.720Z,99511.47
2024-03-02T06:09:25.720Z,99517.19
2024-03-02T06:14:27.347Z,99508.59
2024-03-02T06:19:28.799Z,99519.94
2024-03-02T06:24:30.250Z,99527.25
2024-03-02T06:29:34.205Z,99525.69
2024-03-02T06:34:35.604Z,99535.59
2024-03-02T06:39:37.411Z,99543.38
2024-03-02T06:44:38.997Z,99545.53
2024-03-02T06:49:40.394Z,99542.81
2024-03-02T06:54:41.821Z,99557.00
2024-03-02T06:59:43.288Z,99554.34
2024-03-02T07:04:46.294Z,99558.44
2024-03-02T07:09:48.620Z,99569.31
2024-03-02T07:15:04.957Z,99568.97
2024-03-02T07:20:07.832Z,99562.63
2024-03-02T07:30:33.360Z,99571.03
2024-03-02T07:35:35.721Z,99580.69
2024-03-02T07:40:37.184Z,99587.66
2024-03-02T07:45:38.669Z,99602.16
2024-03-02T07:50:40.649Z,99599.56
2024-03-02T07:55:42.866Z,99608.28
2024-03-02T08:00:44.642Z,99617.47
2024-03-02T08:05:47.074Z,99614.50
2024-03-02T08:10:50.041Z,99624.16
2024-03-02T08:15:51.527Z,99625.31
2024-03-02T08:20:52.976Z,99634.06
2024-03-02T08:25:54.458Z,99621.84
2024-03-02T08:30:55.921Z,99624.66
2024-03-02T08:35:57.936Z,99620.03
2024-03-02T08:40:59.411Z,99618.09
2024-03-02T08:46:01.152Z,99620.75
2024-03-02T08:51:05.647Z,99619.88
2024-03-02T08:56:07.294Z,99628.81
2024-03-02T09:01:09.446Z,99628.38
2024-03-02T09:06:11.604Z,99633.13
2024-03-02T09:11:13.184Z,99641.06
2024-03-02T09:16:14.688Z,99636.16
2024-03-02T09:21:16.299Z,99630.69
2024-03-02T09:26:17.838Z,99637.34
2024-03-02T09:31:19.299Z,99633.53
2024-03-02T09:36:23.112Z,99628.56
2024-03-02T09:41:25.246Z,99613.84
2024-03-02T09:46:26.867Z,99613.63
2024-03-02T09:51:28.556Z,99616.91
2024-03-02T09:56:29.997Z,99614.31
2024-03-02T10:01:31.934Z,99616.88
2024-03-02T10:06:33.512Z,99621.69
2024-03-02T10:11:38.922Z,99609.56
2024-03-02T10:16:45.614Z,99612.41
2024-03-02T10:21:54.492Z,99617.56
2024-03-02T10:26:57.602Z,99611.34
2024-03-02T10:32:00.169Z,99609.41
2024-03-02T10:37:03.129Z,99612.69
2024-03-02T10:42:07.560Z,99593.47
2024-03-02T10:47:10.083Z,99593.09
2024-03-02T10:52:11.693Z,99585.28
2024-03-02T10:57:17.763Z,99590.69
2024-03-02T11:02:22.777Z,99587.28
2024-03-02T11:07:25.918Z,99586.16
2024-03-02T11:12:30.905Z,99573.06
2024-03-02T11:17:32.593Z,99565.34
2024-03-02T11:22:36.156Z,99571.31
2024-03-02T11:28:01.697Z,99573.31
2024-03-02T11:33:12.522Z,99569.28
2024-03-02T11:38:15.336Z,99564.84
2024-03-02T11:43:17.110Z,99551.00
2024-03-02T11:48:20.900Z,99559.91
2024-03-02T11:53:23.768Z,99544.91
2024-03-02T11:58:25.782Z,99534.28
2024-03-02T12:03:27.772Z,99523.94
2024-03-02T12:08:29.321Z,99518.41
2024-03-02T12:13:30.816Z,99502.56
2024-03-02T12:18:32.396Z,99495.59
2024-03-02T12:23:33.894Z,99491.22
2024-03-02T12:28:35.855Z,99488.97
2024-03-02T12:33:37.434Z,99481.50
2024-03-02T12:38:44.681Z,99470.56
2024-03-02T12:43:46.217Z,99474.50
2024-03-02T12:48:47.793Z,99471.22
2024-03-02T12:53:58.755Z,99471.03
2024-03-02T12:59:00.754Z,99469.22
2024-03-02T13:04:02.293Z,99465.59
2024-03-02T13:09:03.979Z,99469.09
2024-03-02T13:14:06.375Z,99461.28
2024-03-02T13:19:12.212Z,99460.00
2024-03-02T13:24:13.679Z,99465.50
2024-03-02T13:29:15.112Z,99462.06
2024-03-02T13:34:16.634Z,99453.31
2024-03-02T13:39:18.072Z,99445.50
2024-03-02T13:44:20.484Z,99437.25
2024-03-02T13:49:21.906Z,99442.28
2024-03-02T13:54:23.324Z,99439.41
2024-03-02T13:59:24.859Z,99442.53
2024-03-02T14:04:26.339Z,99431.44
2024-03-02T14:09:28.322Z,99421.50
2024-03-02T14:14:29.811Z,99410.19
2024-03-02T14:19:31.672Z,99407.72
2024-03-02T14:24:33.280Z,99400.88
2024-03-02T14:29:37.473Z,99414.00
2024-03-02T14:34:40.497Z,99387.81
2024-03-02T14:39:42.401Z,99404.00
2024-03-02T14:44:44.152Z,99392.97
2024-03-02T14:49:45.681Z,99389.63
2024-03-02T14:54:48.048Z,99384.00
2024-03-02T14:59:49.543Z,99389.25
2024-03-02T15:04:51.856Z,99391.19
2024-03-02T15:09:53.413Z,99393.25
2024-03-02T15:14:54.994Z,99400.88
2024-03-02T15:19:56.525Z,99387.16
2024-03-02T15:24:58.049Z,99385.91
2024-03-02T15:29:59.792Z,99383.84
2024-03-02T15:35:01.492Z,99390.06
2024-03-02T15:40:07.569Z,99377.22
2024-03-02T15:45:09.661Z,99387.38
2024-03-02T15:50:11.147Z,99370.06
2024-03-02T15:55:12.756Z,99374.78
2024-03-02T16:00:14.999Z,99367.88
2024-03-02T16:05:18.084Z,99366.16
2024-03-02T16:10:19.559Z,99371.28
2024-03-02T16:15:21.123Z,99360.78
2024-03-02T16:20:22.669Z,99359.81
2024-03-02T16:25:25.838Z,99365.75
2024-03-02T16:30:27.514Z,99372.09
2024-03-02T16:35:29.066Z,99375.59
2024-03-02T16:40:32.605Z,99370.19
2024-03-02T16:45:34.332Z,99371.47
2024-03-02T16:50:35.819Z,99372.13
2024-03-02T16:55:37.259Z,99371.22
2024-03-02T17:00:39.230Z,99374.16
2024-03-02T17:05:40.698Z,99380.88
2024-03-02T17:10:42.330Z,99383.53
2024-03-02T17:15:43.853Z,99390.28
2024-03-02T17:20:45.316Z,99390.84
2024-03-02T17:25:46.740Z,99407.53
2024-03-02T17:30:48.216Z,99402.00
2024-03-02T17:35:50.997Z,99412.44
2024-03-02T17:40:52.415Z,99417.03
2024-03-02T17:45:54.779Z,99413.81
2024-03-02T17:50:56.432Z,99420.13
2024-03-02T17:55:57.822Z,99425.59
2024-03-02T18:00:59.381Z,99434.22
2024-03-02T18:06:04.172Z,99428.47
2024-03-02T18:11:07.500Z,99429.25
2024-03-02T18:16:09.089Z,99421.06
2024-03-02T18:21:10.586Z,99427.69
2024-03-02T18:26:11.994Z,99433.69
2024-03-02T18:31:13.418Z,99431.38
2024-03-02T18:36:14.840Z,99428.09
2024-03-02T18:41:16.264Z,99432.78
2024-03-02T18:46:17.760Z,99434.53
2024-03-02T18:51:23.018Z,99441.25
2024-03-02T18:56:24.496Z,99427.25
2024-03-02T19:01:26.296Z,99422.28
2024-03-02T19:06:27.824Z,99424.09
2024-03-02T19:11:29.491Z,99422.63
2024-03-02T19:16:30.942Z,99401.94
2024-03-02T19:21:33.304Z,99403.09
2024-03-02T19:26:34.801Z,99393.72
2024-03-02T19:31:37.079Z,99390.81
2024-03-02T19:36:38.526Z,99390.88
2024-03-02T19:41:39.992Z,99382.97
2024-03-02T19:46:41.401Z,99384.88
2024-03-02T19:51:43.004Z,99378.88
2024-03-02T19:56:45.948Z,99379.22
2024-03-02T20:01:47.629Z,99372.34
2024-03-02T20:06:49.147Z,99375.81
2024-03-02T20:11:50.778Z,99378.44
2024-03-02T20:16:52.253Z,99379.06
2024-03-02T20:21:53.746Z,99364.41
2024-03-02T20:26:55.873Z,99367.84
2024-03-02T20:31:59.619Z,99363.00
2024-03-02T20:37:02.039Z,99363.00
2024-03-02T20:42:04.149Z,99366.41
2024-03-02T20:47:05.593Z,99368.09
2024-03-02T20:52:07.078Z,99366.03
2024-03-02T20:57:08.581Z,99376.97
2024-03-02T21:02:10.051Z,99381.81
2024-03-02T21:07:11.609Z,99362.78
2024-03-02T21:12:13.119Z,99369.03
2024-03-02T21:17:14.681Z,99370.28
2024-03-02T21:22:16.397Z,99366.84
2024-03-02T21:27:20.905Z,99379.00
2024-03-02T21:32:22.718Z,99376.94
2024-03-02T21:37:24.252Z,99379.53
2024-03-02T21:42:25.694Z,99388.13
2024-03-02T21:47:27.137Z,99378.44
2024-03-02T21:52:28.566Z,99384.78
2024-03-02T21:57:29.998Z,99384.34
2024-03-02T22:02:31.470Z,99394.41
2024-03-02T22:07:32.914Z,99408.06
2024-03-02T22:12:34.472Z,99403.81
2024-03-02T22:17:35.953Z,99405.09
2024-03-02T22:22:40.322Z,99403.06
2024-03-02T22:27:42.533Z,99393.22
2024-03-02T22:32:45.823Z,99399.47
2024-03-02T22:37:47.269Z,99399.88
2024-03-02T22:42:48.756Z,99395.66
2024-03-02T22:47:51.530Z,99385.75
2024-03-02T22:52:53.448Z,99386.16
2024-03-02T22:57:57.405Z,99375.91
2024-03-02T23:02:58.860Z,99359.66
2024-03-02T23:08:00.447Z,99352.97
2024-03-02T23:13:01.983Z,99354.25
2024-03-02T23:18:04.013Z,99355.31
2024-03-02T23:23:06.702Z,99347.84
2024-03-02T23:28:08.266Z,99347.63
2024-03-02T23:33:09.727Z,99344.41
2024-03-02T23:38:11.167Z,99338.84
2024-03-02T23:43:14.409Z,99337.75
2024-03-02T23:48:15.888Z,99336.47
2024-03-02T23:53:17.293Z,99341.38
2024-03-02T23:58:19.424Z,99333.88
